Olympic National Park, WA

09:56 PM PST am 26. Februar 2015 (GMT -0800)
Lake Dawn | Change Station
CLOSE
Current Station
Persönliche Wetterstationen
Location: Port Angeles, WA
Höhe: 1864 ft
Wetterstationen in der Umgebung

Höhe 1864 ft 48.04 °N, 123.43 °W | Updated 11 minutes ago

Regen
Regen
42.3 °F
gefühlte 42 °F
N
0.7
Wind Wechselnd Wind aus Nord
Gusts 0.7 mph

Heute
Max. -- | schwach -- °F
--% Regenrisiko
Gestern
Max. -- | schwach -- °F
Precip. -- inch
7:00 AM 5:53 PM
Zweites Viertel, 65% visible
Druck 29.86 inch
Sichtweite 10.0 Meilen
Wolken Bedeckt 400 ft
Windchill 42 °F
Taupunkt 42 °F
Feuchtigkeit 99%
Regen 0.13 inch
Schneehöhe Nicht verfügbar..
UV 0 von 12
Pollen 3.30 von 12
Luftqualität Nicht verfügbar..
Flu Activity Nicht verfügbar..
METAR KCLM 270453Z AUTO VRB04KT 10SM -RA OVC004 09/07 A2986 RMK AO2 RAE0359B06 SLP111 P0004 T00890072

More Conditions Fewer Conditions

Druck 29.86 inch
Sichtweite 10.0 Meilen
Wolken Bedeckt 400 ft
Windchill 42 °F
Taupunkt 42 °F
Feuchtigkeit 99%
Regen 0.13 inch
Schneehöhe Nicht verfügbar..
UV 0 von 12
Pollen 3.30 von 12
Luftqualität Nicht verfügbar..
Flu Activity Nicht verfügbar..
METAR KCLM 270453Z AUTO VRB04KT 10SM -RA OVC004 09/07 A2986 RMK AO2 RAE0359B06 SLP111 P0004 T00890072

More Conditions Fewer Conditions

10-Day Weather Forecast

Almanac

Astronomie

Feb. 26, 2015 Aufgang Untergang
Genaue Zeit
Bürgerliche Dämmerung
Nautische Dämmerung
Astronomische Dämmerung
Mond
Länge des sichtbaren Lichts
Tageslänge
Tomorrow will be .
, % of the Moon is Illuminated

Heutige Rekorde

State Highs State Lows

Community

WunderPhotos

Upload Photos

1,800,642 Fotos hochgeladen!

WunderBlogs® & News

Nearby

Luftqualität

  Luftqualität LQ Index Schadstoff
Not available.

Schneehöhe

Station Depth Höhe

Erdbebenaktivität

Stadt Distance Mag. Time & Date
Minimum magnitude displayed is 2.5.

küstennahe Wassertemperaturen

Ort Temperatur

Wetterstationen in der Umgebung